Decoded Metar for RJOH (MIHO in JAPAN) (IATA:YGJ) | Meteo·Mobile Aviation Weather
aviador You're here:

RJOH Decoded Metar

MIHO in JAPAN
Report Time2019-01-20 10:00:00
UTC Time2019-01-20 11:00:17
Flight Rules vfr VFR
Wind320° at 14 Gusting to 24 kt
W.Decomp.*RWY 25: 3.1 kt HW 13.6 kt RCW
W.Rank320° ranks 27
Current wind is above 320° avg. (7.2)
Visibility9999 m
Phenomena:Light Shower Rain
Clouds:Few 020 Hf
Broken 030 Hf
Expected CloudBase > 3,600 ft AGL from Temp-Dew spread
Ceiling3,000 ft
Temp08°C (ISA -7)
Dew Point-1°C (53% RH)
AAT0.8°C
QNH1014 hPa
Density Alt-758 ft
Elevation30 ft
Report Wrong Elevation
Raw Report
METAR RJOH 201000Z 32014G24KT 9999 -SHRA FEW020 BKN030 08/M01 Q1014=

Extra information for RJOH:More info

Metar Taf Metar & Taf Last 4 Metars F.Rules Stats Wind Profile Meteogram Temp Stats Airport Information Weather charts Add Link Nearby VenuesMetar ALERT Operation Metar Decoded Social comments